Portada
METAR-TAF:

METAR-TAF

Aeropuertos :

Barcelona, Venezuela

Aeropuerto Internacional General José Antonio Anzoátegui

latitud: 10-07N, longitud: 064-41W, altitud: 7 m

METAR: falta

Hora: 22:00 (02:00 UTC)

Pronóstico

El informe se hizo hace 4 horas y 0 minutos, a las 22:00 UTC
Pronóstico válido del 28 a las 00 UTC al 29 a las 00 UTC
Viento 6 kt del norte-noreste
Visibilidad 10 km o más
Escasas nubes a una altura de 1600 ft
Nubes dispersas a una altura de 10000 ft
Evolucionando progresivamente
del 28 a las 00 UTC al 28 a las 04 UTC
Viento 6 kt del este-noreste

TAF: SVBC 272200Z 2800/2900 02006KT 9999 FEW016 SCT100 TX35/18 TN25/09Z BECMG 2800/2804 07006KT

Observaciones y pronósticos meteorológicos de más de 4000 aeropuertos (mensajes METAR y TAF).

Los puntos amarillos y rojos representan las estaciones disponibles.

Ponga el ratón en el punto deseado para ver el nombre de la estación.

Haga clic para ver las observaciones y los pronósticos meteorológicos.

Para cambiar el mapa : haga clic en los botones verdes con una cruz de color negro para hacer un zoom, en el botón verde con un guión para alejar o en las flechas verdes para mapas adyacentes.


METAR-TAF: